createdAt,value
2022-12-06T00:00:25.557Z,0.61
2022-12-06T00:01:25.568Z,0.44
2022-12-06T00:02:25.637Z,0.61
2022-12-06T00:03:25.641Z,0.44
2022-12-06T00:04:25.570Z,0.44
2022-12-06T00:05:25.567Z,0.44
2022-12-06T00:06:25.560Z,0.61
2022-12-06T00:07:25.573Z,0.44
2022-12-06T00:08:25.575Z,0.61
2022-12-06T00:09:25.587Z,0.44
2022-12-06T00:10:25.567Z,0.28
2022-12-06T00:11:25.570Z,0.28
2022-12-06T00:12:25.568Z,0.61
2022-12-06T00:13:25.570Z,0.44
2022-12-06T00:14:25.569Z,0.72
2022-12-06T00:15:25.570Z,0.72
2022-12-06T00:16:25.608Z,0.61
2022-12-06T00:17:25.561Z,0.44
2022-12-06T00:18:25.562Z,0.28
2022-12-06T00:19:25.573Z,0.61
2022-12-06T00:20:25.577Z,0.44
2022-12-06T00:21:25.557Z,0.17
2022-12-06T00:22:25.573Z,0.44
2022-12-06T00:23:30.288Z,0.28
2022-12-06T00:24:25.566Z,0.44
2022-12-06T00:25:25.597Z,0.17
2022-12-06T00:26:25.560Z,0.44
2022-12-06T00:27:25.564Z,0.17
2022-12-06T00:28:25.569Z,0.17
2022-12-06T00:29:25.574Z,0.28
2022-12-06T00:30:25.559Z,0.28
2022-12-06T00:31:25.666Z,0.28
2022-12-06T00:32:25.589Z,0.28
2022-12-06T00:33:25.560Z,0.44
2022-12-06T00:34:25.566Z,0.44
2022-12-06T00:35:25.578Z,0.44
2022-12-06T00:36:25.566Z,0.44
2022-12-06T00:37:25.571Z,0.44
2022-12-06T00:38:25.570Z,0.44
2022-12-06T00:39:25.578Z,0.61
2022-12-06T00:40:25.564Z,0.17
2022-12-06T00:41:25.596Z,0.17
2022-12-06T00:42:25.569Z,0.28
2022-12-06T00:43:25.574Z,0.17
2022-12-06T00:44:25.581Z,0.17
2022-12-06T00:45:25.596Z,0.28
2022-12-06T00:46:25.643Z,0.17
2022-12-06T00:47:25.587Z,0
2022-12-06T00:48:25.575Z,0.17
2022-12-06T00:49:25.572Z,0.44
2022-12-06T00:50:25.581Z,0.17
2022-12-06T00:51:25.577Z,0.17
2022-12-06T00:52:25.595Z,0.28
2022-12-06T00:53:25.580Z,0
2022-12-06T00:54:25.602Z,-0.17
2022-12-06T00:55:25.584Z,0.17
2022-12-06T00:56:25.589Z,0.17
2022-12-06T00:57:25.613Z,0
2022-12-06T00:58:25.596Z,0.17
2022-12-06T00:59:25.594Z,-0.17
2022-12-06T01:00:25.591Z,0
2022-12-06T01:01:25.700Z,0
2022-12-06T01:02:25.582Z,0
2022-12-06T01:03:27.735Z,0
2022-12-06T01:04:25.592Z,0.17
2022-12-06T01:05:25.596Z,-0.17
2022-12-06T01:06:25.597Z,0.17
2022-12-06T01:07:25.594Z,0
2022-12-06T01:08:25.600Z,-0.17
2022-12-06T01:09:25.594Z,0
2022-12-06T01:10:25.596Z,0
2022-12-06T01:11:25.589Z,0
2022-12-06T01:12:25.593Z,0.17
2022-12-06T01:13:25.611Z,0.44
2022-12-06T01:14:25.590Z,0
2022-12-06T01:15:25.598Z,0.44
2022-12-06T01:16:25.683Z,0.28
2022-12-06T01:17:25.600Z,0
2022-12-06T01:18:25.606Z,0.28
2022-12-06T01:19:25.600Z,0.28
2022-12-06T01:20:25.629Z,0
2022-12-06T01:21:25.606Z,0.17
2022-12-06T01:22:25.595Z,0.17
2022-12-06T01:23:25.606Z,0.28
2022-12-06T01:24:25.605Z,0.44
2022-12-06T01:25:26.365Z,0.44
2022-12-06T01:26:25.602Z,0.28
2022-12-06T01:27:25.610Z,0.17
2022-12-06T01:28:25.602Z,0.17
2022-12-06T01:29:25.626Z,0.44
2022-12-06T01:30:25.633Z,-0.17
2022-12-06T01:31:25.612Z,0.28
2022-12-06T01:32:25.605Z,-0.17
2022-12-06T01:33:25.609Z,0.28
2022-12-06T01:34:25.608Z,0.28
2022-12-06T01:35:25.608Z,0.28
2022-12-06T01:36:25.602Z,0.28
2022-12-06T01:37:25.616Z,0.28
2022-12-06T01:38:25.614Z,0.28
2022-12-06T01:39:25.618Z,0.28
2022-12-06T01:40:25.621Z,0.28
2022-12-06T01:41:25.616Z,0
2022-12-06T01:42:25.609Z,0
2022-12-06T01:43:25.623Z,0.17
2022-12-06T01:44:25.619Z,0.28
2022-12-06T01:45:25.643Z,0.44
2022-12-06T01:46:25.683Z,0.28
2022-12-06T01:47:25.618Z,0.44
2022-12-06T01:48:25.612Z,0.17
2022-12-06T01:49:25.634Z,0.44
2022-12-06T01:50:25.628Z,0.44
2022-12-06T01:51:25.620Z,0.28
2022-12-06T01:52:25.614Z,0.44
2022-12-06T01:53:25.939Z,0.61
2022-12-06T01:54:25.632Z,0.44
2022-12-06T01:55:25.626Z,0.44
2022-12-06T01:56:25.621Z,0.28
2022-12-06T01:57:25.618Z,0.44
2022-12-06T01:58:25.640Z,0.17
2022-12-06T01:59:25.621Z,0.28
2022-12-06T02:00:25.637Z,0.17
2022-12-06T02:01:25.695Z,0
2022-12-06T02:02:25.678Z,0
2022-12-06T02:03:25.635Z,0
2022-12-06T02:04:25.635Z,0.28
2022-12-06T02:05:25.637Z,0
2022-12-06T02:06:25.628Z,0.28
2022-12-06T02:07:25.631Z,0.28
2022-12-06T02:08:25.710Z,0
2022-12-06T02:09:25.629Z,0.28
2022-12-06T02:10:25.644Z,-0.17
2022-12-06T02:11:27.513Z,0.44
2022-12-06T02:12:25.640Z,-0.17
2022-12-06T02:13:25.642Z,0
2022-12-06T02:14:25.640Z,0.28
2022-12-06T02:15:25.646Z,0.28
2022-12-06T02:16:25.688Z,0.28
2022-12-06T02:17:25.675Z,0.28
2022-12-06T02:18:25.644Z,0.17
2022-12-06T02:19:25.635Z,0
2022-12-06T02:20:25.644Z,0.17
2022-12-06T02:21:25.647Z,-0.17
2022-12-06T02:22:25.648Z,0
2022-12-06T02:23:25.652Z,0
2022-12-06T02:24:25.655Z,-0.17
2022-12-06T02:25:25.651Z,0
2022-12-06T02:26:25.650Z,0
2022-12-06T02:27:25.659Z,-0.17
2022-12-06T02:28:25.661Z,0
2022-12-06T02:29:25.661Z,0
2022-12-06T02:30:25.668Z,0
2022-12-06T02:31:25.694Z,-0.17
2022-12-06T02:32:25.653Z,0
2022-12-06T02:33:25.685Z,0
2022-12-06T02:34:25.657Z,-0.17
2022-12-06T02:35:25.660Z,-0.17
2022-12-06T02:36:25.658Z,-0.17
2022-12-06T02:37:25.661Z,-0.17
2022-12-06T02:38:25.656Z,0
2022-12-06T02:39:25.659Z,0.17
2022-12-06T02:40:25.663Z,0
2022-12-06T02:41:25.669Z,-0.17
2022-12-06T02:42:25.665Z,0
2022-12-06T02:43:25.685Z,0.17
2022-12-06T02:44:25.672Z,0.17
2022-12-06T02:45:25.671Z,0.17
2022-12-06T02:46:25.710Z,-0.17
2022-12-06T02:47:25.690Z,0.17
2022-12-06T02:48:25.671Z,-0.17
2022-12-06T02:49:25.693Z,0.17
2022-12-06T02:50:25.677Z,0.28
2022-12-06T02:51:25.669Z,-0.17
2022-12-06T02:52:25.670Z,0.44
2022-12-06T02:53:25.677Z,0.28
2022-12-06T02:54:25.677Z,-0.17
2022-12-06T02:55:25.683Z,0.28
2022-12-06T02:56:25.680Z,0.17
2022-12-06T02:57:25.680Z,0.28
2022-12-06T02:58:25.686Z,0.17
2022-12-06T02:59:25.676Z,-0.17
2022-12-06T03:00:25.671Z,-0.28
2022-12-06T03:01:25.717Z,0.17
2022-12-06T03:02:25.710Z,0
2022-12-06T03:03:25.690Z,-0.17
2022-12-06T03:04:25.681Z,-0.17
2022-12-06T03:05:25.702Z,0.17
2022-12-06T03:06:25.692Z,0.17
2022-12-06T03:07:25.686Z,0
2022-12-06T03:08:25.685Z,0.28
2022-12-06T03:09:25.682Z,0
2022-12-06T03:10:25.689Z,0
2022-12-06T03:11:25.685Z,0.17
2022-12-06T03:12:25.687Z,0
2022-12-06T03:13:25.690Z,0
2022-12-06T03:14:25.691Z,-0.17
2022-12-06T03:15:25.708Z,-0.17
2022-12-06T03:16:25.693Z,0
2022-12-06T03:17:25.692Z,0
2022-12-06T03:18:25.704Z,0
2022-12-06T03:19:25.696Z,0.17
2022-12-06T03:20:25.698Z,0
2022-12-06T03:21:25.712Z,-0.17
2022-12-06T03:22:25.693Z,-0.17
2022-12-06T03:23:25.691Z,-0.17
2022-12-06T03:24:25.692Z,0
2022-12-06T03:25:25.694Z,-0.17
2022-12-06T03:26:25.694Z,-0.17
2022-12-06T03:27:25.691Z,-0.39
2022-12-06T03:28:25.702Z,-0.39
2022-12-06T03:29:25.696Z,-0.28
2022-12-06T03:30:25.692Z,-0.28
2022-12-06T03:31:25.794Z,-0.17
2022-12-06T03:32:25.721Z,-0.28
2022-12-06T03:33:25.700Z,-0.39
2022-12-06T03:34:25.713Z,-0.28
2022-12-06T03:35:25.707Z,-0.17
2022-12-06T03:36:25.704Z,-0.17
2022-12-06T03:37:25.734Z,0
2022-12-06T03:38:25.709Z,-0.28
2022-12-06T03:39:25.700Z,-0.28
2022-12-06T03:40:25.703Z,-0.28
2022-12-06T03:41:25.713Z,-0.28
2022-12-06T03:42:25.705Z,-0.56
2022-12-06T03:43:25.712Z,-0.28
2022-12-06T03:44:25.717Z,-0.67
2022-12-06T03:45:25.769Z,-0.17
2022-12-06T03:46:27.793Z,-0.39
2022-12-06T03:47:25.713Z,-0.28
2022-12-06T03:48:25.715Z,0
2022-12-06T03:49:25.715Z,-0.17
2022-12-06T03:50:25.717Z,0
2022-12-06T03:51:25.725Z,0
2022-12-06T03:52:25.712Z,0
2022-12-06T03:53:25.748Z,-0.39
2022-12-06T03:54:25.713Z,-0.28
2022-12-06T03:55:25.721Z,0
2022-12-06T03:56:25.724Z,-0.17
2022-12-06T03:57:25.716Z,-0.17
2022-12-06T03:58:25.727Z,0
2022-12-06T03:59:25.722Z,-0.28
2022-12-06T04:00:25.720Z,-0.39
2022-12-06T04:01:25.771Z,0
2022-12-06T04:02:25.716Z,-0.56
2022-12-06T04:03:25.757Z,-0.56
2022-12-06T04:04:25.728Z,-0.39
2022-12-06T04:05:25.721Z,-0.39
2022-12-06T04:06:25.722Z,-0.67
2022-12-06T04:07:25.723Z,-0.67
2022-12-06T04:08:25.730Z,-0.83
2022-12-06T04:09:25.754Z,-0.83
2022-12-06T04:10:25.718Z,-0.39
2022-12-06T04:11:25.725Z,-0.56
2022-12-06T04:12:25.727Z,-0.39
2022-12-06T04:13:25.731Z,-0.33
2022-12-06T04:14:25.731Z,-0.83
2022-12-06T04:15:25.726Z,-0.39
2022-12-06T04:16:25.785Z,-0.83
2022-12-06T04:17:25.728Z,-0.39
2022-12-06T04:18:25.728Z,-0.39
2022-12-06T04:19:25.742Z,-0.28
2022-12-06T04:20:25.728Z,-0.67
2022-12-06T04:21:25.742Z,-0.67
2022-12-06T04:22:25.738Z,-0.83
2022-12-06T04:23:25.732Z,-0.39
2022-12-06T04:24:25.741Z,-0.39
2022-12-06T04:25:25.755Z,-0.56
2022-12-06T04:26:25.747Z,-0.56
2022-12-06T04:27:25.741Z,-0.56
2022-12-06T04:28:25.734Z,-0.56
2022-12-06T04:29:25.736Z,-0.67
2022-12-06T04:30:25.731Z,-0.56
2022-12-06T04:31:25.785Z,-0.56
2022-12-06T04:32:25.734Z,-0.56
2022-12-06T04:33:25.734Z,-1.11
2022-12-06T04:34:25.752Z,-0.67
2022-12-06T04:35:25.741Z,-0.83
2022-12-06T04:36:25.746Z,-0.56
2022-12-06T04:37:25.744Z,-0.39
2022-12-06T04:38:25.735Z,-0.67
2022-12-06T04:39:25.744Z,-0.56
2022-12-06T04:40:25.754Z,-0.56
2022-12-06T04:41:25.758Z,-0.67
2022-12-06T04:42:25.743Z,-0.56
2022-12-06T04:43:25.746Z,-0.56
2022-12-06T04:44:25.744Z,-0.28
2022-12-06T04:45:25.746Z,-0.39
2022-12-06T04:46:25.844Z,-0.28
2022-12-06T04:47:25.746Z,-0.39
2022-12-06T04:48:25.761Z,-0.39
2022-12-06T04:49:25.750Z,-0.28
2022-12-06T04:50:25.754Z,-0.39
2022-12-06T04:51:25.742Z,-0.56
2022-12-06T04:52:25.750Z,-0.28
2022-12-06T04:53:25.750Z,-0.17
2022-12-06T04:54:25.751Z,0
2022-12-06T04:55:25.756Z,-0.28
2022-12-06T04:56:25.758Z,-0.17
2022-12-06T04:57:25.779Z,-0.39
2022-12-06T04:58:25.754Z,-0.17
2022-12-06T04:59:25.757Z,-0.28
2022-12-06T05:00:25.817Z,0
2022-12-06T05:01:25.760Z,0
2022-12-06T05:02:25.764Z,-0.28
2022-12-06T05:03:25.803Z,0
2022-12-06T05:04:25.833Z,0
2022-12-06T05:05:25.748Z,-0.28
2022-12-06T05:06:25.760Z,-0.28
2022-12-06T05:07:25.768Z,0
2022-12-06T05:08:25.760Z,0
2022-12-06T05:09:25.769Z,-0.17
2022-12-06T05:10:25.771Z,-0.17
2022-12-06T05:11:25.768Z,0
2022-12-06T05:12:25.769Z,-0.17
2022-12-06T05:13:25.792Z,0
2022-12-06T05:14:25.759Z,-0.39
2022-12-06T05:15:29.117Z,-0.28
2022-12-06T05:16:25.783Z,-0.17
2022-12-06T05:17:25.757Z,-0.39
2022-12-06T05:18:25.753Z,0
2022-12-06T05:19:25.764Z,-0.28
2022-12-06T05:20:25.763Z,-0.17
2022-12-06T05:21:25.773Z,-0.17
2022-12-06T05:22:25.768Z,-0.67
2022-12-06T05:23:25.772Z,-0.56
2022-12-06T05:24:25.763Z,-0.28
2022-12-06T05:25:25.757Z,-0.28
2022-12-06T05:26:25.763Z,-0.39
2022-12-06T05:27:25.761Z,-0.28
2022-12-06T05:28:25.770Z,-0.39
2022-12-06T05:29:25.785Z,-0.39
2022-12-06T05:30:25.768Z,-0.39
2022-12-06T05:31:25.810Z,-0.56
2022-12-06T05:32:25.765Z,-0.39
2022-12-06T05:33:25.762Z,-0.39
2022-12-06T05:34:25.765Z,-0.67
2022-12-06T05:35:25.781Z,-0.39
2022-12-06T05:36:25.771Z,-0.67
2022-12-06T05:37:25.790Z,-0.39
2022-12-06T05:38:25.764Z,-0.17
2022-12-06T05:39:25.800Z,-0.28
2022-12-06T05:40:25.768Z,-0.39
2022-12-06T05:41:25.776Z,-0.67
2022-12-06T05:42:25.772Z,-0.56
2022-12-06T05:43:25.772Z,-0.67
2022-12-06T05:44:25.769Z,-0.39
2022-12-06T05:45:25.788Z,-0.39
2022-12-06T05:46:25.814Z,-0.83
2022-12-06T05:47:25.783Z,-0.39
2022-12-06T05:48:25.792Z,-0.28
2022-12-06T05:49:25.774Z,-0.28
2022-12-06T05:50:25.777Z,-0.39
2022-12-06T05:51:25.771Z,-0.39
2022-12-06T05:52:25.774Z,-0.28
2022-12-06T05:53:25.776Z,-0.56
2022-12-06T05:54:25.774Z,-0.28
2022-12-06T05:55:25.781Z,-0.56
2022-12-06T05:56:25.776Z,-0.28
2022-12-06T05:57:25.776Z,-0.39
2022-12-06T05:58:25.780Z,-0.39
2022-12-06T05:59:25.779Z,-0.28
2022-12-06T06:00:25.775Z,-0.39
2022-12-06T06:01:25.803Z,-0.39
2022-12-06T06:02:25.982Z,-0.17
2022-12-06T06:03:25.806Z,-0.28
2022-12-06T06:04:25.792Z,-0.28
2022-12-06T06:05:25.795Z,-0.67
2022-12-06T06:06:25.786Z,-0.28
2022-12-06T06:07:25.785Z,-0.39
2022-12-06T06:08:25.784Z,0
2022-12-06T06:09:25.787Z,-0.28
2022-12-06T06:10:25.787Z,-0.39
2022-12-06T06:11:25.792Z,-0.28
2022-12-06T06:12:25.781Z,-0.39
2022-12-06T06:13:25.784Z,-0.39
2022-12-06T06:14:25.796Z,-0.17
2022-12-06T06:15:25.784Z,-0.67
2022-12-06T06:16:25.863Z,-0.39
2022-12-06T06:17:25.803Z,-0.39
2022-12-06T06:18:25.789Z,-0.39
2022-12-06T06:19:25.789Z,-0.39
2022-12-06T06:20:25.780Z,-0.39
2022-12-06T06:21:25.809Z,-0.67
2022-12-06T06:22:25.794Z,-0.67
2022-12-06T06:23:25.787Z,-0.56
2022-12-06T06:24:25.791Z,-0.56
2022-12-06T06:25:25.795Z,-0.28
2022-12-06T06:26:25.785Z,-0.56
2022-12-06T06:27:25.793Z,-0.39
2022-12-06T06:28:25.791Z,-0.39
2022-12-06T06:29:25.786Z,-0.67
2022-12-06T06:30:25.794Z,-0.17
2022-12-06T06:31:25.816Z,-0.28
2022-12-06T06:32:25.786Z,-0.28
2022-12-06T06:33:25.814Z,-0.39
2022-12-06T06:34:25.793Z,-0.39
2022-12-06T06:35:25.791Z,-0.39
2022-12-06T06:36:25.786Z,-0.39
2022-12-06T06:37:25.793Z,-0.39
2022-12-06T06:38:25.791Z,-0.28
2022-12-06T06:39:25.789Z,-0.28
2022-12-06T06:40:25.802Z,-0.17
2022-12-06T06:41:25.793Z,-0.17
2022-12-06T06:42:25.797Z,-0.17
2022-12-06T06:43:25.795Z,0
2022-12-06T06:44:25.798Z,0
2022-12-06T06:45:28.825Z,-0.28
2022-12-06T06:46:25.878Z,-0.39
2022-12-06T06:47:25.805Z,-0.39
2022-12-06T06:48:25.807Z,-0.56
2022-12-06T06:49:25.813Z,-0.67
2022-12-06T06:50:25.794Z,-0.28
2022-12-06T06:51:25.794Z,-0.28
2022-12-06T06:52:25.805Z,-0.39
2022-12-06T06:53:25.802Z,-0.56
2022-12-06T06:54:25.794Z,-0.39
2022-12-06T06:55:25.801Z,-0.67
2022-12-06T06:56:25.789Z,-0.28
2022-12-06T06:57:25.803Z,-0.28
2022-12-06T06:58:25.805Z,-0.17
2022-12-06T06:59:25.804Z,-0.39
2022-12-06T07:00:25.805Z,-0.39
2022-12-06T07:01:25.830Z,-0.28
2022-12-06T07:02:25.841Z,-0.39
2022-12-06T07:03:25.809Z,-0.56
2022-12-06T07:04:25.806Z,-0.39
2022-12-06T07:05:25.823Z,-0.39
2022-12-06T07:06:25.802Z,-0.39
2022-12-06T07:07:25.834Z,-0.39
2022-12-06T07:08:25.796Z,-0.39
2022-12-06T07:09:25.803Z,-0.39
2022-12-06T07:10:25.798Z,-0.67
2022-12-06T07:11:25.799Z,-0.56
2022-12-06T07:12:25.805Z,-0.67
2022-12-06T07:13:25.804Z,-0.39
2022-12-06T07:14:25.800Z,-0.39
2022-12-06T07:15:25.802Z,-0.39
2022-12-06T07:16:25.851Z,-0.39
2022-12-06T07:17:25.807Z,-0.39
2022-12-06T07:18:25.808Z,-0.67
2022-12-06T07:19:25.807Z,-0.39
2022-12-06T07:20:25.808Z,-0.39
2022-12-06T07:21:25.824Z,-0.39
2022-12-06T07:22:25.812Z,-0.39
2022-12-06T07:23:25.803Z,-0.39
2022-12-06T07:24:25.811Z,-0.28
2022-12-06T07:25:25.813Z,-0.39
2022-12-06T07:26:25.812Z,-0.39
2022-12-06T07:27:25.810Z,-0.28
2022-12-06T07:28:25.814Z,-0.39
2022-12-06T07:29:25.800Z,-0.39
2022-12-06T07:30:27.480Z,-1
2022-12-06T07:31:25.884Z,-1
2022-12-06T07:32:25.804Z,-0.56
2022-12-06T07:33:25.804Z,-0.28
2022-12-06T07:34:25.804Z,-0.56
2022-12-06T07:35:36.872Z,-0.39
2022-12-06T07:36:25.808Z,-0.17
2022-12-06T07:37:25.839Z,-0.28
2022-12-06T07:38:25.802Z,-0.67
2022-12-06T07:39:25.804Z,-0.28
2022-12-06T07:40:41.530Z,-0.56
2022-12-06T07:41:25.801Z,-0.17
2022-12-06T07:42:25.801Z,0
2022-12-06T07:43:25.804Z,0
2022-12-06T07:44:26.502Z,-0.17
2022-12-06T07:45:25.815Z,0.17
2022-12-06T07:46:25.874Z,0
2022-12-06T07:47:25.819Z,0
2022-12-06T07:48:25.813Z,0
2022-12-06T07:49:25.821Z,-0.17
2022-12-06T07:50:25.803Z,0
2022-12-06T07:51:25.812Z,-0.17
2022-12-06T07:52:25.798Z,0
2022-12-06T07:53:25.851Z,-0.17
2022-12-06T07:54:25.805Z,-0.28
2022-12-06T07:55:25.808Z,-0.28
2022-12-06T07:56:25.812Z,-0.39
2022-12-06T07:57:25.818Z,-0.28
2022-12-06T07:58:25.813Z,-0.39
2022-12-06T07:59:25.811Z,-0.28
2022-12-06T08:00:25.809Z,-0.28
2022-12-06T08:01:25.869Z,-0.56
2022-12-06T08:02:25.830Z,-0.17
2022-12-06T08:03:25.819Z,-0.17
2022-12-06T08:04:25.933Z,-0.39
2022-12-06T08:05:25.815Z,-0.39
2022-12-06T08:06:25.811Z,-0.17
2022-12-06T08:07:25.818Z,-0.17
2022-12-06T08:08:28.639Z,-0.56
2022-12-06T08:09:25.846Z,-0.56
2022-12-06T08:10:25.818Z,0
2022-12-06T08:11:25.816Z,-0.17
2022-12-06T08:12:25.822Z,-0.17
2022-12-06T08:13:25.817Z,-0.28
2022-12-06T08:14:25.824Z,0
2022-12-06T08:15:25.810Z,0
2022-12-06T08:16:25.900Z,0
2022-12-06T08:17:25.824Z,0
2022-12-06T08:18:25.813Z,0
2022-12-06T08:19:25.817Z,0
2022-12-06T08:20:25.817Z,-0.17
2022-12-06T08:21:25.812Z,-0.17
2022-12-06T08:22:25.822Z,-0.39
2022-12-06T08:23:30.742Z,-0.39
2022-12-06T08:24:25.816Z,-0.17
2022-12-06T08:25:25.834Z,0
2022-12-06T08:26:25.808Z,-0.28
2022-12-06T08:27:25.816Z,-0.28
2022-12-06T08:28:25.821Z,0
2022-12-06T08:29:25.819Z,-0.28
2022-12-06T08:30:25.862Z,0
2022-12-06T08:31:25.954Z,0
2022-12-06T08:32:25.813Z,-0.28
2022-12-06T08:33:25.812Z,0
2022-12-06T08:34:25.822Z,-0.17
2022-12-06T08:35:25.822Z,0.17
2022-12-06T08:36:25.815Z,0
2022-12-06T08:37:25.817Z,-0.17
2022-12-06T08:38:25.822Z,0
2022-12-06T08:39:25.820Z,0
2022-12-06T08:40:25.858Z,0.17
2022-12-06T08:41:25.841Z,0
2022-12-06T08:42:25.821Z,-0.17
2022-12-06T08:43:25.820Z,0
2022-12-06T08:44:25.831Z,-0.17
2022-12-06T08:45:25.828Z,0
2022-12-06T08:46:25.933Z,0.17
2022-12-06T08:47:25.825Z,0
2022-12-06T08:48:25.825Z,0.44
2022-12-06T08:49:25.814Z,0.17
2022-12-06T08:50:25.842Z,0.17
2022-12-06T08:51:25.834Z,0
2022-12-06T08:52:25.820Z,0
2022-12-06T08:53:25.823Z,0
2022-12-06T08:54:25.818Z,0.17
2022-12-06T08:55:25.822Z,0.28
2022-12-06T08:56:25.822Z,0.28
2022-12-06T08:57:25.840Z,0.28
2022-12-06T08:58:25.822Z,0.28
2022-12-06T08:59:25.837Z,0.28
2022-12-06T09:00:25.808Z,0.28
2022-12-06T09:01:25.865Z,0.44
2022-12-06T09:02:25.816Z,0.44
2022-12-06T09:03:25.821Z,0.17
2022-12-06T09:04:25.908Z,0
2022-12-06T09:05:25.815Z,0.61
2022-12-06T09:06:25.826Z,0.61
2022-12-06T09:07:25.818Z,0.61
2022-12-06T09:08:25.863Z,0.28
2022-12-06T09:09:25.816Z,0.28
2022-12-06T09:10:25.823Z,0.28
2022-12-06T09:11:25.823Z,0
2022-12-06T09:12:25.839Z,0
2022-12-06T09:13:25.854Z,-0.17
2022-12-06T09:14:25.828Z,-0.17
2022-12-06T09:15:25.823Z,0.44
2022-12-06T09:16:25.889Z,0.44
2022-12-06T09:17:25.830Z,0
2022-12-06T09:18:25.824Z,0.44
2022-12-06T09:19:25.821Z,0.61
2022-12-06T09:20:25.823Z,0.28
2022-12-06T09:21:25.834Z,0.17
2022-12-06T09:22:25.820Z,0.44
2022-12-06T09:23:25.830Z,0.44
2022-12-06T09:24:25.826Z,0.44
2022-12-06T09:25:25.825Z,0.28
2022-12-06T09:26:25.823Z,0.44
2022-12-06T09:27:25.831Z,0.28
2022-12-06T09:28:25.829Z,0.44
2022-12-06T09:29:25.848Z,0.17
2022-12-06T09:30:25.819Z,0.28
2022-12-06T09:31:25.902Z,0
2022-12-06T09:32:25.820Z,0.44
2022-12-06T09:33:25.832Z,0.28
2022-12-06T09:34:25.829Z,0.61
2022-12-06T09:35:25.837Z,0.61
2022-12-06T09:36:25.824Z,0.61
2022-12-06T09:37:25.826Z,0.44
2022-12-06T09:38:25.828Z,0.17
2022-12-06T09:39:25.831Z,0.44
2022-12-06T09:40:25.821Z,0.28
2022-12-06T09:41:25.820Z,0.44
2022-12-06T09:42:25.820Z,0.17
2022-12-06T09:43:25.828Z,0.61
2022-12-06T09:44:25.828Z,0.28
2022-12-06T09:45:25.843Z,0.72
2022-12-06T09:46:25.879Z,0.28
2022-12-06T09:47:25.822Z,0.72
2022-12-06T09:48:25.829Z,0.28
2022-12-06T09:49:25.830Z,0.44
2022-12-06T09:50:25.821Z,0
2022-12-06T09:51:25.827Z,0.28
2022-12-06T09:52:25.818Z,0.28
2022-12-06T09:53:25.829Z,0.28
2022-12-06T09:54:25.832Z,0.44
2022-12-06T09:55:25.827Z,0.44
2022-12-06T09:56:25.835Z,0
2022-12-06T09:57:25.835Z,0.44
2022-12-06T09:58:25.841Z,0.44
2022-12-06T09:59:25.836Z,0.44
2022-12-06T10:00:25.837Z,0.44
2022-12-06T10:01:25.925Z,0.44
2022-12-06T10:02:25.880Z,0.44
2022-12-06T10:03:25.933Z,0.28
2022-12-06T10:04:25.836Z,0.72
2022-12-06T10:05:25.844Z,0.72
2022-12-06T10:06:25.832Z,0.72
2022-12-06T10:07:25.846Z,0.72
2022-12-06T10:08:25.922Z,0.44
2022-12-06T10:09:25.852Z,0.44
2022-12-06T10:10:25.839Z,0.72
2022-12-06T10:11:25.845Z,0.72
2022-12-06T10:12:25.862Z,0.72
2022-12-06T10:13:25.861Z,0.89
2022-12-06T10:14:25.854Z,0.44
2022-12-06T10:15:25.860Z,0.72
2022-12-06T10:16:25.900Z,0.44
2022-12-06T10:17:25.890Z,0.89
2022-12-06T10:18:25.874Z,0.72
2022-12-06T10:19:25.873Z,0.44
2022-12-06T10:20:25.871Z,0.28
2022-12-06T10:21:25.875Z,0.61
2022-12-06T10:22:25.878Z,0.61
2022-12-06T10:23:25.879Z,0.61
2022-12-06T10:24:25.889Z,0.44
2022-12-06T10:25:25.880Z,0.72
2022-12-06T10:26:25.880Z,0.61
2022-12-06T10:27:25.874Z,0.89
2022-12-06T10:28:25.868Z,0.61
2022-12-06T10:29:29.293Z,0.44
2022-12-06T10:30:25.880Z,0.44
2022-12-06T10:31:25.922Z,0.28
2022-12-06T10:32:25.880Z,0.72
2022-12-06T10:33:25.909Z,0.89
2022-12-06T10:34:25.880Z,0.89
2022-12-06T10:35:25.879Z,0.89
2022-12-06T10:36:25.892Z,0.89
2022-12-06T10:37:25.905Z,0.72
2022-12-06T10:38:25.890Z,0.72
2022-12-06T10:39:25.889Z,1.06
2022-12-06T10:40:25.893Z,0.72
2022-12-06T10:41:25.895Z,0.89
2022-12-06T10:42:25.893Z,1.06
2022-12-06T10:43:25.891Z,1.33
2022-12-06T10:44:25.895Z,1.06
2022-12-06T10:45:25.895Z,0.89
2022-12-06T10:46:25.962Z,1.17
2022-12-06T10:47:25.900Z,1.33
2022-12-06T10:48:25.904Z,1.61
2022-12-06T10:49:25.927Z,1.61
2022-12-06T10:50:25.922Z,1.5
2022-12-06T10:51:25.916Z,1.5
2022-12-06T10:52:25.910Z,1.5
2022-12-06T10:53:25.909Z,1.72
2022-12-06T10:54:25.920Z,1.61
2022-12-06T10:55:25.927Z,1.61
2022-12-06T10:56:25.917Z,1.33
2022-12-06T10:57:25.916Z,1.72
2022-12-06T10:58:25.905Z,1.72
2022-12-06T10:59:25.917Z,2.17
2022-12-06T11:00:25.912Z,2
2022-12-06T11:01:25.982Z,2.44
2022-12-06T11:02:26.068Z,2.61
2022-12-06T11:03:25.918Z,2.72
2022-12-06T11:04:25.931Z,2.44
2022-12-06T11:05:25.960Z,2.61
2022-12-06T11:06:25.950Z,2.44
2022-12-06T11:07:25.937Z,2.28
2022-12-06T11:08:25.948Z,1.89
2022-12-06T11:09:25.931Z,2.17
2022-12-06T11:10:25.935Z,2.17
2022-12-06T11:11:25.942Z,2.17
2022-12-06T11:12:30.871Z,2.17
2022-12-06T11:13:25.943Z,2
2022-12-06T11:14:25.950Z,2
2022-12-06T11:15:25.955Z,1.72
2022-12-06T11:16:25.975Z,1.61
2022-12-06T11:17:25.953Z,1.72
2022-12-06T11:18:25.950Z,2.17
2022-12-06T11:19:25.952Z,2.61
2022-12-06T11:20:25.957Z,2.61
2022-12-06T11:21:25.991Z,2.72
2022-12-06T11:22:25.956Z,2.61
2022-12-06T11:23:25.972Z,3
2022-12-06T11:24:25.964Z,3.17
2022-12-06T11:25:25.978Z,3
2022-12-06T11:26:25.958Z,3.56
2022-12-06T11:27:25.964Z,3.17
2022-12-06T11:28:25.962Z,2.61
2022-12-06T11:29:25.966Z,3.44
2022-12-06T11:30:25.970Z,4.17
2022-12-06T11:31:26.016Z,3.72
2022-12-06T11:32:25.975Z,3.72
2022-12-06T11:33:25.968Z,3.56
2022-12-06T11:34:25.972Z,3.56
2022-12-06T11:35:25.972Z,4
2022-12-06T11:36:25.975Z,4.56
2022-12-06T11:37:26.021Z,4.28
2022-12-06T11:38:25.975Z,4.28
2022-12-06T11:39:25.985Z,4.72
2022-12-06T11:40:25.977Z,4.28
2022-12-06T11:41:25.986Z,3.72
2022-12-06T11:42:25.981Z,3.83
2022-12-06T11:43:25.983Z,4.17
2022-12-06T11:44:25.994Z,3.72
2022-12-06T11:45:25.988Z,3.72
2022-12-06T11:46:26.084Z,3.44
2022-12-06T11:47:25.990Z,3.44
2022-12-06T11:48:25.991Z,3
2022-12-06T11:49:25.980Z,3.17
2022-12-06T11:50:25.990Z,3
2022-12-06T11:51:26.000Z,3.17
2022-12-06T11:52:26.005Z,3.17
2022-12-06T11:53:26.014Z,2.89
2022-12-06T11:54:25.993Z,2.89
2022-12-06T11:55:25.999Z,3.33
2022-12-06T11:56:26.008Z,3.44
2022-12-06T11:57:26.019Z,3.44
2022-12-06T11:58:26.011Z,3.33
2022-12-06T11:59:26.002Z,2.72
2022-12-06T12:00:26.017Z,2.89
2022-12-06T12:01:26.010Z,2.83
2022-12-06T12:02:26.027Z,2.61
2022-12-06T12:03:26.034Z,2.72
2022-12-06T12:04:26.007Z,2.72
2022-12-06T12:05:26.028Z,2.78
2022-12-06T12:06:26.019Z,3.11
2022-12-06T12:07:26.029Z,3
2022-12-06T12:08:29.732Z,3.28
2022-12-06T12:09:26.049Z,2.83
2022-12-06T12:10:26.021Z,3
2022-12-06T12:11:26.022Z,3.39
2022-12-06T12:12:26.032Z,3.56
2022-12-06T12:13:26.030Z,3.56
2022-12-06T12:14:26.038Z,3.39
2022-12-06T12:15:26.036Z,2.83
2022-12-06T12:16:26.122Z,3.11
2022-12-06T12:17:26.044Z,3
2022-12-06T12:18:26.044Z,2.83
2022-12-06T12:19:26.042Z,2.83
2022-12-06T12:20:26.055Z,3
2022-12-06T12:21:26.043Z,3.39
2022-12-06T12:22:26.046Z,3.78
2022-12-06T12:23:26.048Z,3.94
2022-12-06T12:24:26.051Z,3.39
2022-12-06T12:25:26.553Z,4.11
2022-12-06T12:26:26.049Z,4.22
2022-12-06T12:27:28.593Z,3.56
2022-12-06T12:28:26.051Z,3.39
2022-12-06T12:29:26.056Z,3.11
2022-12-06T12:30:26.049Z,3.28
2022-12-06T12:31:26.090Z,3.11
2022-12-06T12:32:26.061Z,3.28
2022-12-06T12:33:26.061Z,3.78
2022-12-06T12:34:26.064Z,3.94
2022-12-06T12:35:26.066Z,4.39
2022-12-06T12:36:26.071Z,4.5
2022-12-06T12:37:26.072Z,4.5
2022-12-06T12:38:26.068Z,4.22
2022-12-06T12:39:26.068Z,4.39
2022-12-06T12:40:26.072Z,4.22
2022-12-06T12:41:26.098Z,4.11
2022-12-06T12:42:26.074Z,4.5
2022-12-06T12:43:26.071Z,4.67
2022-12-06T12:44:37.390Z,4.22
2022-12-06T12:45:26.071Z,3.94
2022-12-06T12:46:26.132Z,3.67
2022-12-06T12:47:26.069Z,4.22
2022-12-06T12:48:26.073Z,3.94
2022-12-06T12:49:26.075Z,4.11
2022-12-06T12:50:26.084Z,3.28
2022-12-06T12:51:26.071Z,3
2022-12-06T12:52:26.080Z,3.56
2022-12-06T12:53:26.084Z,3.56
2022-12-06T12:54:26.086Z,3.94
2022-12-06T12:55:26.083Z,3
2022-12-06T12:56:26.087Z,3.56
2022-12-06T12:57:26.114Z,3.78
2022-12-06T12:58:26.088Z,4.39
2022-12-06T12:59:26.089Z,3.78
2022-12-06T13:00:26.096Z,4.11
2022-12-06T13:01:26.154Z,3.67
2022-12-06T13:02:26.130Z,3.56
2022-12-06T13:03:49.984Z,4.11
2022-12-06T13:04:26.098Z,4.39
2022-12-06T13:05:34.461Z,4.39
2022-12-06T13:06:26.093Z,4.39
2022-12-06T13:07:26.101Z,4.39
2022-12-06T13:08:26.154Z,3.78
2022-12-06T13:09:26.115Z,3.67
2022-12-06T13:10:26.100Z,3.78
2022-12-06T13:11:26.100Z,3.78
2022-12-06T13:12:26.108Z,3.56
2022-12-06T13:13:26.128Z,3.39
2022-12-06T13:14:26.108Z,3.39
2022-12-06T13:15:26.111Z,3.67
2022-12-06T13:16:26.148Z,3.28
2022-12-06T13:17:26.110Z,3.56
2022-12-06T13:18:26.115Z,3.39
2022-12-06T13:19:26.114Z,3.28
2022-12-06T13:20:26.132Z,3.28